sensor_id;sensor_type;location;lat;lon;timestamp;pressure;altitude;pressure_sealevel;temperature;humidity
19096;BME280;9680;52.520;13.332;2023-05-11T00:00:37;101108.25;;;15.72;74.25
19096;BME280;9680;52.520;13.332;2023-05-11T00:03:03;101113.59;;;15.70;74.49
19096;BME280;9680;52.520;13.332;2023-05-11T00:05:30;101118.09;;;15.68;74.54
19096;BME280;9680;52.520;13.332;2023-05-11T00:07:57;101106.06;;;15.64;74.61
19096;BME280;9680;52.520;13.332;2023-05-11T00:10:24;101115.03;;;15.60;74.55
19096;BME280;9680;52.520;13.332;2023-05-11T00:12:52;101099.50;;;15.55;74.97
19096;BME280;9680;52.520;13.332;2023-05-11T00:15:19;101102.38;;;15.51;75.15
19096;BME280;9680;52.520;13.332;2023-05-11T00:17:46;101106.94;;;15.47;75.22
19096;BME280;9680;52.520;13.332;2023-05-11T00:20:13;101105.41;;;15.43;75.50
19096;BME280;9680;52.520;13.332;2023-05-11T00:22:40;101109.03;;;15.40;75.76
19096;BME280;9680;52.520;13.332;2023-05-11T00:25:07;101106.72;;;15.34;75.85
19096;BME280;9680;52.520;13.332;2023-05-11T00:27:34;101103.50;;;15.29;76.14
19096;BME280;9680;52.520;13.332;2023-05-11T00:30:03;101099.28;;;15.26;76.46
19096;BME280;9680;52.520;13.332;2023-05-11T00:32:29;101103.88;;;15.21;76.45
19096;BME280;9680;52.520;13.332;2023-05-11T00:34:56;101101.50;;;15.17;76.70
19096;BME280;9680;52.520;13.332;2023-05-11T00:37:23;101100.91;;;15.11;76.82
19096;BME280;9680;52.520;13.332;2023-05-11T00:39:50;101101.22;;;15.05;77.16
19096;BME280;9680;52.520;13.332;2023-05-11T00:42:17;101091.72;;;15.03;77.35
19096;BME280;9680;52.520;13.332;2023-05-11T00:44:44;101094.44;;;15.01;77.47
19096;BME280;9680;52.520;13.332;2023-05-11T00:47:12;101097.06;;;15.01;77.60
19096;BME280;9680;52.520;13.332;2023-05-11T00:49:40;101106.84;;;14.97;77.86
19096;BME280;9680;52.520;13.332;2023-05-11T00:52:07;101103.47;;;14.95;77.68
19096;BME280;9680;52.520;13.332;2023-05-11T00:54:34;101107.09;;;14.93;77.91
19096;BME280;9680;52.520;13.332;2023-05-11T00:57:02;101102.69;;;14.93;78.11
19096;BME280;9680;52.520;13.332;2023-05-11T00:59:28;101103.63;;;14.92;78.42
19096;BME280;9680;52.520;13.332;2023-05-11T01:01:55;101106.25;;;14.92;78.54
19096;BME280;9680;52.520;13.332;2023-05-11T01:04:24;101100.28;;;14.89;78.41
19096;BME280;9680;52.520;13.332;2023-05-11T01:06:56;101103.16;;;14.84;78.24
19096;BME280;9680;52.520;13.332;2023-05-11T01:09:38;101107.69;;;14.80;78.50
19096;BME280;9680;52.520;13.332;2023-05-11T01:12:14;101099.06;;;14.78;78.57
19096;BME280;9680;52.520;13.332;2023-05-11T01:15:00;101108.88;;;14.75;78.74
19096;BME280;9680;52.520;13.332;2023-05-11T01:17:37;101114.09;;;14.75;78.86
19096;BME280;9680;52.520;13.332;2023-05-11T01:20:11;101106.41;;;14.72;78.67
19096;BME280;9680;52.520;13.332;2023-05-11T01:23:09;101108.28;;;14.68;78.82
19096;BME280;9680;52.520;13.332;2023-05-11T01:26:09;101110.22;;;14.64;79.12
19096;BME280;9680;52.520;13.332;2023-05-11T01:28:57;101112.06;;;14.62;79.23
19096;BME280;9680;52.520;13.332;2023-05-11T01:31:30;101106.81;;;14.62;79.15
19096;BME280;9680;52.520;13.332;2023-05-11T01:34:03;101111.28;;;14.60;78.88
19096;BME280;9680;52.520;13.332;2023-05-11T01:36:33;101111.28;;;14.60;79.21
19096;BME280;9680;52.520;13.332;2023-05-11T01:39:04;101117.47;;;14.59;79.25
19096;BME280;9680;52.520;13.332;2023-05-11T01:41:33;101107.81;;;14.60;79.53
19096;BME280;9680;52.520;13.332;2023-05-11T01:44:04;101113.16;;;14.58;79.02
19096;BME280;9680;52.520;13.332;2023-05-11T01:46:33;101114.97;;;14.56;79.26
19096;BME280;9680;52.520;13.332;2023-05-11T01:49:02;101113.25;;;14.55;79.25
19096;BME280;9680;52.520;13.332;2023-05-11T01:51:33;101117.66;;;14.54;79.50
19096;BME280;9680;52.520;13.332;2023-05-11T01:54:02;101129.84;;;14.55;79.68
19096;BME280;9680;52.520;13.332;2023-05-11T01:56:32;101121.06;;;14.56;79.56
19096;BME280;9680;52.520;13.332;2023-05-11T01:59:01;101128.94;;;14.56;79.02
19096;BME280;9680;52.520;13.332;2023-05-11T02:01:29;101127.22;;;14.55;79.34
19096;BME280;9680;52.520;13.332;2023-05-11T02:03:58;101140.50;;;14.52;79.35
19096;BME280;9680;52.520;13.332;2023-05-11T02:06:28;101139.88;;;14.47;79.58
19096;BME280;9680;52.520;13.332;2023-05-11T02:08:57;101139.25;;;14.42;79.92
19096;BME280;9680;52.520;13.332;2023-05-11T02:11:27;101141.91;;;14.40;79.74
19096;BME280;9680;52.520;13.332;2023-05-11T02:13:56;101134.28;;;14.36;80.09
19096;BME280;9680;52.520;13.332;2023-05-11T02:16:23;101140.50;;;14.33;79.90
19096;BME280;9680;52.520;13.332;2023-05-11T02:18:53;101138.97;;;14.29;80.04
19096;BME280;9680;52.520;13.332;2023-05-11T02:21:23;101141.72;;;14.26;80.04
19096;BME280;9680;52.520;13.332;2023-05-11T02:23:51;101142.66;;;14.25;80.02
19096;BME280;9680;52.520;13.332;2023-05-11T02:26:19;101141.09;;;14.21;79.91
19096;BME280;9680;52.520;13.332;2023-05-11T02:28:46;101136.97;;;14.15;80.14
19096;BME280;9680;52.520;13.332;2023-05-11T02:31:16;101141.53;;;14.11;80.41
19096;BME280;9680;52.520;13.332;2023-05-11T02:33:47;101145.06;;;14.10;80.75
19096;BME280;9680;52.520;13.332;2023-05-11T02:36:16;101147.75;;;14.09;80.57
19096;BME280;9680;52.520;13.332;2023-05-11T02:38:48;101152.22;;;14.07;80.77
19096;BME280;9680;52.520;13.332;2023-05-11T02:41:20;101154.00;;;14.06;81.00
19096;BME280;9680;52.520;13.332;2023-05-11T02:43:53;101149.69;;;14.05;80.97
19096;BME280;9680;52.520;13.332;2023-05-11T02:46:27;101151.44;;;14.05;81.08
19096;BME280;9680;52.520;13.332;2023-05-11T02:48:58;101151.44;;;14.05;80.87
19096;BME280;9680;52.520;13.332;2023-05-11T02:51:30;101152.34;;;14.04;80.61
19096;BME280;9680;52.520;13.332;2023-05-11T02:54:00;101156.81;;;14.02;80.38
19096;BME280;9680;52.520;13.332;2023-05-11T02:56:31;101148.19;;;14.00;80.19
19096;BME280;9680;52.520;13.332;2023-05-11T02:58:59;101155.34;;;13.96;79.85
19096;BME280;9680;52.520;13.332;2023-05-11T03:01:27;101151.03;;;13.95;79.63
19096;BME280;9680;52.520;13.332;2023-05-11T03:03:54;101158.00;;;13.94;79.65
19096;BME280;9680;52.520;13.332;2023-05-11T03:06:23;101156.41;;;13.92;79.23
19096;BME280;9680;52.520;13.332;2023-05-11T03:08:50;101147.72;;;13.90;78.44
19096;BME280;9680;52.520;13.332;2023-05-11T03:11:19;101158.28;;;13.88;77.82
19096;BME280;9680;52.520;13.332;2023-05-11T03:13:46;101154.03;;;13.86;77.47
19096;BME280;9680;52.520;13.332;2023-05-11T03:16:16;101152.41;;;13.83;76.78
19096;BME280;9680;52.520;13.332;2023-05-11T03:18:44;101153.34;;;13.82;76.49
19096;BME280;9680;52.520;13.332;2023-05-11T03:21:13;101159.50;;;13.81;76.36
19096;BME280;9680;52.520;13.332;2023-05-11T03:23:41;101152.56;;;13.80;75.74
19096;BME280;9680;52.520;13.332;2023-05-11T03:26:10;101152.59;;;13.78;75.65
19096;BME280;9680;52.520;13.332;2023-05-11T03:28:41;101151.69;;;13.79;75.49
19096;BME280;9680;52.520;13.332;2023-05-11T03:31:09;101153.47;;;13.79;74.88
19096;BME280;9680;52.520;13.332;2023-05-11T03:33:36;101155.22;;;13.78;74.86
19096;BME280;9680;52.520;13.332;2023-05-11T03:36:05;101157.84;;;13.78;75.00
19096;BME280;9680;52.520;13.332;2023-05-11T03:38:34;101152.75;;;13.75;74.50
19096;BME280;9680;52.520;13.332;2023-05-11T03:41:03;101158.84;;;13.76;74.24
19096;BME280;9680;52.520;13.332;2023-05-11T03:43:33;101156.16;;;13.77;74.21
19096;BME280;9680;52.520;13.332;2023-05-11T03:46:02;101150.13;;;13.75;74.26
19096;BME280;9680;52.520;13.332;2023-05-11T03:48:31;101157.06;;;13.76;73.97
19096;BME280;9680;52.520;13.332;2023-05-11T03:50:58;101153.63;;;13.76;73.67
19096;BME280;9680;52.520;13.332;2023-05-11T03:53:25;101158.84;;;13.76;74.04
19096;BME280;9680;52.520;13.332;2023-05-11T03:55:52;101152.84;;;13.74;73.61
19096;BME280;9680;52.520;13.332;2023-05-11T03:58:19;101156.22;;;13.76;73.29
19096;BME280;9680;52.520;13.332;2023-05-11T04:00:47;101161.47;;;13.76;73.11
19096;BME280;9680;52.520;13.332;2023-05-11T04:03:15;101151.91;;;13.75;72.76
19096;BME280;9680;52.520;13.332;2023-05-11T04:05:42;101155.38;;;13.75;72.57
19096;BME280;9680;52.520;13.332;2023-05-11T04:08:11;101156.22;;;13.76;72.45
19096;BME280;9680;52.520;13.332;2023-05-11T04:10:38;101157.94;;;13.77;71.83
19096;BME280;9680;52.520;13.332;2023-05-11T04:13:05;101152.69;;;13.77;71.92
19096;BME280;9680;52.520;13.332;2023-05-11T04:15:31;101158.72;;;13.79;71.65
19096;BME280;9680;52.520;13.332;2023-05-11T04:17:59;101163.81;;;13.82;71.41
19096;BME280;9680;52.520;13.332;2023-05-11T04:20:27;101162.81;;;13.84;71.29
19096;BME280;9680;52.520;13.332;2023-05-11T04:22:54;101161.06;;;13.85;70.81
19096;BME280;9680;52.520;13.332;2023-05-11T04:25:21;101160.13;;;13.86;70.25
19096;BME280;9680;52.520;13.332;2023-05-11T04:27:48;101169.59;;;13.89;70.25
19096;BME280;9680;52.520;13.332;2023-05-11T04:30:15;101166.88;;;13.92;70.00
19096;BME280;9680;52.520;13.332;2023-05-11T04:32:43;101168.56;;;13.93;69.71
19096;BME280;9680;52.520;13.332;2023-05-11T04:35:10;101164.94;;;13.95;69.59
19096;BME280;9680;52.520;13.332;2023-05-11T04:37:39;101164.81;;;13.98;69.57
19096;BME280;9680;52.520;13.332;2023-05-11T04:40:08;101165.44;;;14.04;69.13
19096;BME280;9680;52.520;13.332;2023-05-11T04:42:39;101174.09;;;14.06;68.66
19096;BME280;9680;52.520;13.332;2023-05-11T04:45:12;101166.03;;;14.10;68.57
19096;BME280;9680;52.520;13.332;2023-05-11T04:47:39;101171.97;;;14.14;68.25
19096;BME280;9680;52.520;13.332;2023-05-11T04:50:07;101185.69;;;14.19;68.21
19096;BME280;9680;52.520;13.332;2023-05-11T04:52:35;101182.88;;;14.24;67.43
19096;BME280;9680;52.520;13.332;2023-05-11T04:55:04;101185.34;;;14.27;67.21
19096;BME280;9680;52.520;13.332;2023-05-11T04:57:31;101180.88;;;14.29;66.62
19096;BME280;9680;52.520;13.332;2023-05-11T05:00:00;101181.59;;;14.33;66.56
19096;BME280;9680;52.520;13.332;2023-05-11T05:02:28;101181.47;;;14.36;66.51
19096;BME280;9680;52.520;13.332;2023-05-11T05:04:55;101189.97;;;14.41;66.14
19096;BME280;9680;52.520;13.332;2023-05-11T05:07:21;101191.50;;;14.45;65.78
19096;BME280;9680;52.520;13.332;2023-05-11T05:09:48;101188.59;;;14.51;65.57
19096;BME280;9680;52.520;13.332;2023-05-11T05:12:16;101189.22;;;14.56;65.63
19096;BME280;9680;52.520;13.332;2023-05-11T05:14:43;101187.22;;;14.62;65.38
19096;BME280;9680;52.520;13.332;2023-05-11T05:17:10;101187.03;;;14.66;64.96
19096;BME280;9680;52.520;13.332;2023-05-11T05:19:38;101193.84;;;14.70;64.66
19096;BME280;9680;52.520;13.332;2023-05-11T05:22:05;101190.94;;;14.77;64.69
19096;BME280;9680;52.520;13.332;2023-05-11T05:24:32;101188.84;;;14.83;64.34
19096;BME280;9680;52.520;13.332;2023-05-11T05:27:00;101196.34;;;14.91;63.96
19096;BME280;9680;52.520;13.332;2023-05-11T05:29:29;101191.72;;;14.96;63.88
19096;BME280;9680;52.520;13.332;2023-05-11T05:31:56;101193.97;;;15.04;63.46
19096;BME280;9680;52.520;13.332;2023-05-11T05:34:25;101190.94;;;15.12;63.07
19096;BME280;9680;52.520;13.332;2023-05-11T05:36:52;101197.69;;;15.18;63.00
19096;BME280;9680;52.520;13.332;2023-05-11T05:39:18;101194.75;;;15.24;62.64
19096;BME280;9680;52.520;13.332;2023-05-11T05:41:45;101192.72;;;15.29;62.65
19096;BME280;9680;52.520;13.332;2023-05-11T05:44:12;101198.38;;;15.39;62.40
19096;BME280;9680;52.520;13.332;2023-05-11T05:46:42;101207.69;;;15.44;61.96
19096;BME280;9680;52.520;13.332;2023-05-11T05:49:09;101200.28;;;15.53;62.10
19096;BME280;9680;52.520;13.332;2023-05-11T05:51:36;101197.19;;;15.62;61.63
19096;BME280;9680;52.520;13.332;2023-05-11T05:54:03;101208.22;;;15.69;61.12
19096;BME280;9680;52.520;13.332;2023-05-11T05:56:30;101215.16;;;15.70;60.97
19096;BME280;9680;52.520;13.332;2023-05-11T05:58:59;101203.72;;;15.71;60.92
19096;BME280;9680;52.520;13.332;2023-05-11T06:01:26;101214.78;;;15.78;60.50
19096;BME280;9680;52.520;13.332;2023-05-11T06:03:54;101214.34;;;15.85;60.51
19096;BME280;9680;52.520;13.332;2023-05-11T06:06:21;101213.66;;;15.99;60.44
19096;BME280;9680;52.520;13.332;2023-05-11T06:08:48;101216.56;;;16.11;60.08
19096;BME280;9680;52.520;13.332;2023-05-11T06:11:15;101225.72;;;16.20;59.55
19096;BME280;9680;52.520;13.332;2023-05-11T06:13:41;101215.41;;;16.33;59.20
19096;BME280;9680;52.520;13.332;2023-05-11T06:16:08;101212.94;;;16.45;59.28
19096;BME280;9680;52.520;13.332;2023-05-11T06:18:36;101216.09;;;16.52;58.56
19096;BME280;9680;52.520;13.332;2023-05-11T06:21:06;101221.09;;;16.57;58.23
19096;BME280;9680;52.520;13.332;2023-05-11T06:23:34;101215.16;;;16.69;58.10
19096;BME280;9680;52.520;13.332;2023-05-11T06:26:01;101212.75;;;16.81;58.07
19096;BME280;9680;52.520;13.332;2023-05-11T06:28:30;101221.63;;;16.94;57.75
19096;BME280;9680;52.520;13.332;2023-05-11T06:31:02;101222.47;;;17.11;57.31
19096;BME280;9680;52.520;13.332;2023-05-11T06:33:32;101220.06;;;17.22;56.66
19096;BME280;9680;52.520;13.332;2023-05-11T06:36:03;101216.16;;;17.29;55.79
19096;BME280;9680;52.520;13.332;2023-05-11T06:38:31;101220.75;;;17.40;55.28
19096;BME280;9680;52.520;13.332;2023-05-11T06:40:58;101212.31;;;17.50;55.12
19096;BME280;9680;52.520;13.332;2023-05-11T06:43:25;101217.06;;;17.59;54.83
19096;BME280;9680;52.520;13.332;2023-05-11T06:45:52;101224.59;;;17.65;54.42
19096;BME280;9680;52.520;13.332;2023-05-11T06:48:19;101211.59;;;17.76;53.69
19096;BME280;9680;52.520;13.332;2023-05-11T06:50:49;101212.16;;;17.82;53.07
19096;BME280;9680;52.520;13.332;2023-05-11T06:53:16;101215.75;;;17.95;53.06
19096;BME280;9680;52.520;13.332;2023-05-11T06:55:45;101218.78;;;18.03;52.56
19096;BME280;9680;52.520;13.332;2023-05-11T06:58:12;101206.72;;;18.14;52.19
19096;BME280;9680;52.520;13.332;2023-05-11T07:00:39;101209.63;;;18.24;52.00
19096;BME280;9680;52.520;13.332;2023-05-11T07:03:06;101208.09;;;18.34;51.93
19096;BME280;9680;52.520;13.332;2023-05-11T07:05:34;101208.38;;;18.44;51.25
19096;BME280;9680;52.520;13.332;2023-05-11T07:08:01;101217.03;;;18.46;50.73
19096;BME280;9680;52.520;13.332;2023-05-11T07:10:36;101210.59;;;18.50;49.99
19096;BME280;9680;52.520;13.332;2023-05-11T07:13:15;101216.97;;;18.60;50.15
19096;BME280;9680;52.520;13.332;2023-05-11T07:15:41;101210.06;;;18.72;49.71
19096;BME280;9680;52.520;13.332;2023-05-11T07:18:08;101216.53;;;18.81;49.65
19096;BME280;9680;52.520;13.332;2023-05-11T07:20:35;101211.69;;;18.88;48.93
19096;BME280;9680;52.520;13.332;2023-05-11T07:23:04;101205.84;;;18.97;48.99
19096;BME280;9680;52.520;13.332;2023-05-11T07:25:31;101218.22;;;19.10;48.72
19096;BME280;9680;52.520;13.332;2023-05-11T07:27:58;101217.06;;;19.14;48.38
19096;BME280;9680;52.520;13.332;2023-05-11T07:30:26;101207.69;;;19.23;48.15
19096;BME280;9680;52.520;13.332;2023-05-11T07:32:53;101211.59;;;19.30;48.03
19096;BME280;9680;52.520;13.332;2023-05-11T07:35:20;101212.34;;;19.32;47.32
19096;BME280;9680;52.520;13.332;2023-05-11T07:37:47;101207.38;;;19.40;47.33
19096;BME280;9680;52.520;13.332;2023-05-11T07:40:13;101213.63;;;19.52;47.66
19096;BME280;9680;52.520;13.332;2023-05-11T07:42:40;101216.38;;;19.63;47.27
19096;BME280;9680;52.520;13.332;2023-05-11T07:45:08;101214.78;;;19.74;46.95
19096;BME280;9680;52.520;13.332;2023-05-11T07:47:36;101202.22;;;19.77;46.53
19096;BME280;9680;52.520;13.332;2023-05-11T07:50:03;101212.28;;;19.72;46.08
19096;BME280;9680;52.520;13.332;2023-05-11T07:52:30;101206.97;;;19.72;46.35
19096;BME280;9680;52.520;13.332;2023-05-11T07:54:57;101198.53;;;19.67;45.53
19096;BME280;9680;52.520;13.332;2023-05-11T07:57:24;101200.63;;;19.75;45.94
19096;BME280;9680;52.520;13.332;2023-05-11T07:59:50;101207.16;;;19.82;46.06
19096;BME280;9680;52.520;13.332;2023-05-11T08:02:17;101197.56;;;19.94;45.84
19096;BME280;9680;52.520;13.332;2023-05-11T08:04:45;101206.53;;;20.04;45.75
19096;BME280;9680;52.520;13.332;2023-05-11T08:07:12;101194.47;;;20.13;45.21
19096;BME280;9680;52.520;13.332;2023-05-11T08:09:39;101201.44;;;20.27;45.50
19096;BME280;9680;52.520;13.332;2023-05-11T08:12:05;101194.75;;;20.34;44.54
19096;BME280;9680;52.520;13.332;2023-05-11T08:14:32;101203.50;;;20.35;44.67
19096;BME280;9680;52.520;13.332;2023-05-11T08:16:59;101197.31;;;20.47;44.75
19096;BME280;9680;52.520;13.332;2023-05-11T08:19:26;101193.91;;;20.58;44.40
19096;BME280;9680;52.520;13.332;2023-05-11T08:21:54;101197.03;;;20.63;44.19
19096;BME280;9680;52.520;13.332;2023-05-11T08:24:21;101192.66;;;20.75;44.14
19096;BME280;9680;52.520;13.332;2023-05-11T08:26:47;101199.72;;;20.88;43.95
19096;BME280;9680;52.520;13.332;2023-05-11T08:29:14;101196.50;;;20.95;43.77
19096;BME280;9680;52.520;13.332;2023-05-11T08:31:41;101202.28;;;21.01;43.41
19096;BME280;9680;52.520;13.332;2023-05-11T08:34:08;101207.69;;;20.99;42.92
19096;BME280;9680;52.520;13.332;2023-05-11T08:36:35;101203.00;;;20.91;42.01
19096;BME280;9680;52.520;13.332;2023-05-11T08:39:03;101193.69;;;20.86;42.08
19096;BME280;9680;52.520;13.332;2023-05-11T08:41:30;101199.47;;;20.91;42.14
19096;BME280;9680;52.520;13.332;2023-05-11T08:43:58;101198.53;;;20.92;42.20
19096;BME280;9680;52.520;13.332;2023-05-11T08:46:28;101204.09;;;21.00;41.82
19096;BME280;9680;52.520;13.332;2023-05-11T08:48:55;101201.09;;;21.05;41.86
19096;BME280;9680;52.520;13.332;2023-05-11T08:51:24;101199.78;;;21.10;41.74
19096;BME280;9680;52.520;13.332;2023-05-11T08:53:52;101200.28;;;21.16;41.24
19096;BME280;9680;52.520;13.332;2023-05-11T08:56:25;101194.91;;;21.29;41.71
19096;BME280;9680;52.520;13.332;2023-05-11T08:58:53;101198.03;;;21.45;41.73
19096;BME280;9680;52.520;13.332;2023-05-11T09:01:21;101195.19;;;21.60;41.29
19096;BME280;9680;52.520;13.332;2023-05-11T09:03:49;101189.44;;;21.66;40.75
19096;BME280;9680;52.520;13.332;2023-05-11T09:06:17;101187.28;;;21.71;40.35
19096;BME280;9680;52.520;13.332;2023-05-11T09:08:45;101188.09;;;21.72;40.48
19096;BME280;9680;52.520;13.332;2023-05-11T09:11:13;101184.13;;;21.77;39.73
19096;BME280;9680;52.520;13.332;2023-05-11T09:13:42;101187.03;;;21.86;40.01
19096;BME280;9680;52.520;13.332;2023-05-11T09:16:09;101184.13;;;21.89;39.01
19096;BME280;9680;52.520;13.332;2023-05-11T09:18:45;101186.66;;;21.90;39.26
19096;BME280;9680;52.520;13.332;2023-05-11T09:21:12;101188.59;;;22.00;38.97
19096;BME280;9680;52.520;13.332;2023-05-11T09:23:39;101182.53;;;22.09;38.88
19096;BME280;9680;52.520;13.332;2023-05-11T09:26:12;101181.69;;;22.08;38.25
19096;BME280;9680;52.520;13.332;2023-05-11T09:28:49;101183.84;;;22.15;38.52
19096;BME280;9680;52.520;13.332;2023-05-11T09:31:37;101177.31;;;22.30;38.67
19096;BME280;9680;52.520;13.332;2023-05-11T09:34:09;101186.00;;;22.32;38.17
19096;BME280;9680;52.520;13.332;2023-05-11T09:36:36;101181.16;;;22.37;37.20
19096;BME280;9680;52.520;13.332;2023-05-11T09:39:03;101180.91;;;22.52;37.81
19096;BME280;9680;52.520;13.332;2023-05-11T09:41:30;101178.13;;;22.53;36.71
19096;BME280;9680;52.520;13.332;2023-05-11T09:44:05;101181.28;;;22.36;37.30
19096;BME280;9680;52.520;13.332;2023-05-11T09:46:33;101180.69;;;22.32;37.21
19096;BME280;9680;52.520;13.332;2023-05-11T09:49:02;101174.03;;;22.49;36.34
19096;BME280;9680;52.520;13.332;2023-05-11T09:51:29;101187.22;;;22.72;36.50
19096;BME280;9680;52.520;13.332;2023-05-11T09:53:57;101178.56;;;22.91;35.18
19096;BME280;9680;52.520;13.332;2023-05-11T09:56:42;101183.81;;;23.03;35.55
19096;BME280;9680;52.520;13.332;2023-05-11T09:59:10;101180.38;;;23.12;35.63
19096;BME280;9680;52.520;13.332;2023-05-11T10:01:39;101180.31;;;23.23;35.82
19096;BME280;9680;52.520;13.332;2023-05-11T10:04:06;101165.00;;;23.27;35.29
19096;BME280;9680;52.520;13.332;2023-05-11T10:06:44;101172.13;;;23.26;34.85
19096;BME280;9680;52.520;13.332;2023-05-11T10:09:12;101177.06;;;23.41;35.14
19096;BME280;9680;52.520;13.332;2023-05-11T10:11:43;101175.94;;;23.65;34.80
19096;BME280;9680;52.520;13.332;2023-05-11T10:14:13;101161.84;;;23.84;34.31
19096;BME280;9680;52.520;13.332;2023-05-11T10:16:41;101167.91;;;23.86;34.21
19096;BME280;9680;52.520;13.332;2023-05-11T10:19:09;101156.09;;;23.69;33.71
19096;BME280;9680;52.520;13.332;2023-05-11T10:21:36;101166.69;;;23.59;33.75
19096;BME280;9680;52.520;13.332;2023-05-11T10:24:04;101162.59;;;23.55;33.83
19096;BME280;9680;52.520;13.332;2023-05-11T10:26:32;101163.91;;;23.61;33.80
19096;BME280;9680;52.520;13.332;2023-05-11T10:28:59;101160.44;;;23.70;34.14
19096;BME280;9680;52.520;13.332;2023-05-11T10:31:28;101150.94;;;23.77;33.63
19096;BME280;9680;52.520;13.332;2023-05-11T10:33:56;101154.19;;;23.91;33.99
19096;BME280;9680;52.520;13.332;2023-05-11T10:36:23;101152.94;;;23.95;32.75
19096;BME280;9680;52.520;13.332;2023-05-11T10:38:51;101165.00;;;23.99;32.77
19096;BME280;9680;52.520;13.332;2023-05-11T10:41:36;101164.06;;;24.10;32.42
19096;BME280;9680;52.520;13.332;2023-05-11T10:44:47;101157.25;;;24.37;32.38
19096;BME280;9680;52.520;13.332;2023-05-11T10:50:50;101153.34;;;24.90;31.29
19096;BME280;9680;52.520;13.332;2023-05-11T10:53:47;101153.56;;;25.16;31.48
19096;BME280;9680;52.520;13.332;2023-05-11T10:56:43;101147.59;;;24.85;30.63
19096;BME280;9680;52.520;13.332;2023-05-11T10:59:30;101141.69;;;24.52;30.86
19096;BME280;9680;52.520;13.332;2023-05-11T11:02:02;101148.13;;;24.20;31.51
19096;BME280;9680;52.520;13.332;2023-05-11T11:04:43;101153.16;;;24.13;31.92
19096;BME280;9680;52.520;13.332;2023-05-11T11:07:13;101153.00;;;24.14;32.28
19096;BME280;9680;52.520;13.332;2023-05-11T11:09:50;101149.63;;;24.12;32.40
19096;BME280;9680;52.520;13.332;2023-05-11T11:12:17;101156.38;;;24.17;32.63
19096;BME280;9680;52.520;13.332;2023-05-11T11:14:58;101152.22;;;24.24;32.00
19096;BME280;9680;52.520;13.332;2023-05-11T11:17:26;101158.94;;;24.48;32.27
19096;BME280;9680;52.520;13.332;2023-05-11T11:19:56;101150.00;;;24.88;31.69
19096;BME280;9680;52.520;13.332;2023-05-11T11:22:44;101149.41;;;25.42;31.29
19096;BME280;9680;52.520;13.332;2023-05-11T11:25:12;101134.84;;;25.74;30.49
19096;BME280;9680;52.520;13.332;2023-05-11T11:27:56;101138.00;;;25.87;30.41
19096;BME280;9680;52.520;13.332;2023-05-11T11:30:24;101137.28;;;26.13;30.13
19096;BME280;9680;52.520;13.332;2023-05-11T11:32:54;101140.38;;;26.37;30.11
19096;BME280;9680;52.520;13.332;2023-05-11T11:35:43;101129.69;;;26.55;29.45
19096;BME280;9680;52.520;13.332;2023-05-11T11:38:13;101132.41;;;26.81;29.70
19096;BME280;9680;52.520;13.332;2023-05-11T11:40:42;101139.56;;;26.81;29.08
19096;BME280;9680;52.520;13.332;2023-05-11T11:43:10;101141.44;;;26.44;29.04
19096;BME280;9680;52.520;13.332;2023-05-11T11:45:39;101147.41;;;26.20;29.08
19096;BME280;9680;52.520;13.332;2023-05-11T11:48:20;101148.03;;;25.76;29.63
19096;BME280;9680;52.520;13.332;2023-05-11T11:50:48;101154.34;;;25.37;30.03
19096;BME280;9680;52.520;13.332;2023-05-11T11:56:38;101154.88;;;24.93;30.30
19096;BME280;9680;52.520;13.332;2023-05-11T11:59:05;101150.69;;;24.90;30.27
19096;BME280;9680;52.520;13.332;2023-05-11T12:01:36;101159.22;;;24.84;30.36
19096;BME280;9680;52.520;13.332;2023-05-11T12:04:33;101156.03;;;24.80;30.55
19096;BME280;9680;52.520;13.332;2023-05-11T12:07:06;101154.75;;;24.75;29.40
19096;BME280;9680;52.520;13.332;2023-05-11T12:09:35;101161.88;;;24.45;30.07
19096;BME280;9680;52.520;13.332;2023-05-11T12:12:06;101164.34;;;24.17;30.21
19096;BME280;9680;52.520;13.332;2023-05-11T12:14:34;101160.28;;;24.12;30.68
19096;BME280;9680;52.520;13.332;2023-05-11T12:17:07;101161.91;;;23.94;30.42
19096;BME280;9680;52.520;13.332;2023-05-11T12:19:38;101164.78;;;23.71;30.29
19096;BME280;9680;52.520;13.332;2023-05-11T12:22:06;101169.06;;;23.62;30.42
19096;BME280;9680;52.520;13.332;2023-05-11T12:24:35;101165.59;;;23.62;30.62
19096;BME280;9680;52.520;13.332;2023-05-11T12:27:04;101172.97;;;23.99;30.51
19096;BME280;9680;52.520;13.332;2023-05-11T12:29:31;101167.34;;;24.33;30.02
19096;BME280;9680;52.520;13.332;2023-05-11T12:31:58;101168.03;;;24.55;29.72
19096;BME280;9680;52.520;13.332;2023-05-11T12:34:25;101162.75;;;24.84;29.56
19096;BME280;9680;52.520;13.332;2023-05-11T12:36:53;101163.41;;;25.06;29.39
19096;BME280;9680;52.520;13.332;2023-05-11T12:39:21;101168.06;;;25.42;28.97
19096;BME280;9680;52.520;13.332;2023-05-11T12:41:50;101162.16;;;25.58;28.66
19096;BME280;9680;52.520;13.332;2023-05-11T12:44:20;101165.91;;;25.65;28.32
19096;BME280;9680;52.520;13.332;2023-05-11T12:46:48;101165.50;;;25.70;28.15
19096;BME280;9680;52.520;13.332;2023-05-11T12:49:17;101171.13;;;25.67;28.17
19096;BME280;9680;52.520;13.332;2023-05-11T12:51:49;101165.28;;;25.53;27.78
19096;BME280;9680;52.520;13.332;2023-05-11T12:54:25;101155.44;;;25.44;27.31
19096;BME280;9680;52.520;13.332;2023-05-11T12:56:52;101161.66;;;25.35;27.92
19096;BME280;9680;52.520;13.332;2023-05-11T12:59:26;101164.03;;;25.38;28.07
19096;BME280;9680;52.520;13.332;2023-05-11T13:01:54;101159.38;;;25.40;28.22
19096;BME280;9680;52.520;13.332;2023-05-11T13:04:30;101159.72;;;25.27;27.74
19096;BME280;9680;52.520;13.332;2023-05-11T13:06:57;101163.38;;;25.26;28.21
19096;BME280;9680;52.520;13.332;2023-05-11T13:09:25;101157.31;;;25.34;28.39